sensor_id;sensor_type;location;lat;lon;timestamp;P1;durP1;ratioP1;P2;durP2;ratioP2
52718;SDS011;38616;42.140;24.760;2024-01-25T00:01:14;34.45;;;17.95;;
52718;SDS011;38616;42.140;24.760;2024-01-25T00:03:40;36.08;;;18.20;;
52718;SDS011;38616;42.140;24.760;2024-01-25T00:06:05;34.13;;;17.20;;
52718;SDS011;38616;42.140;24.760;2024-01-25T00:08:32;43.17;;;17.10;;
52718;SDS011;38616;42.140;24.760;2024-01-25T00:10:57;38.22;;;16.02;;
52718;SDS011;38616;42.140;24.760;2024-01-25T00:13:22;37.63;;;15.63;;
52718;SDS011;38616;42.140;24.760;2024-01-25T00:15:48;35.45;;;13.75;;
52718;SDS011;38616;42.140;24.760;2024-01-25T00:18:13;28.92;;;13.73;;
52718;SDS011;38616;42.140;24.760;2024-01-25T00:20:39;33.33;;;13.68;;
52718;SDS011;38616;42.140;24.760;2024-01-25T00:23:06;26.48;;;13.50;;
52718;SDS011;38616;42.140;24.760;2024-01-25T00:25:34;30.13;;;13.77;;
52718;SDS011;38616;42.140;24.760;2024-01-25T00:28:00;26.38;;;13.82;;
52718;SDS011;38616;42.140;24.760;2024-01-25T00:30:26;22.77;;;11.77;;
52718;SDS011;38616;42.140;24.760;2024-01-25T00:32:52;25.33;;;12.77;;
52718;SDS011;38616;42.140;24.760;2024-01-25T00:35:17;28.13;;;13.57;;
52718;SDS011;38616;42.140;24.760;2024-01-25T00:37:43;31.67;;;14.80;;
52718;SDS011;38616;42.140;24.760;2024-01-25T00:40:09;31.05;;;13.20;;
52718;SDS011;38616;42.140;24.760;2024-01-25T00:42:42;26.38;;;13.55;;
52718;SDS011;38616;42.140;24.760;2024-01-25T00:45:10;25.70;;;12.38;;
52718;SDS011;38616;42.140;24.760;2024-01-25T00:47:36;22.70;;;11.48;;
52718;SDS011;38616;42.140;24.760;2024-01-25T00:50:06;24.48;;;10.63;;
52718;SDS011;38616;42.140;24.760;2024-01-25T00:52:32;23.23;;;10.77;;
52718;SDS011;38616;42.140;24.760;2024-01-25T00:54:57;19.42;;;7.90;;
52718;SDS011;38616;42.140;24.760;2024-01-25T00:57:23;14.57;;;6.80;;
52718;SDS011;38616;42.140;24.760;2024-01-25T00:59:49;10.45;;;5.30;;
52718;SDS011;38616;42.140;24.760;2024-01-25T01:02:14;9.90;;;4.60;;
52718;SDS011;38616;42.140;24.760;2024-01-25T01:04:40;12.32;;;5.32;;
52718;SDS011;38616;42.140;24.760;2024-01-25T01:07:06;7.53;;;3.85;;
52718;SDS011;38616;42.140;24.760;2024-01-25T01:09:32;10.98;;;4.55;;
52718;SDS011;38616;42.140;24.760;2024-01-25T01:11:58;9.48;;;4.50;;
52718;SDS011;38616;42.140;24.760;2024-01-25T01:14:24;8.95;;;3.55;;
52718;SDS011;38616;42.140;24.760;2024-01-25T01:16:49;7.22;;;3.20;;
52718;SDS011;38616;42.140;24.760;2024-01-25T01:19:15;6.00;;;2.85;;
52718;SDS011;38616;42.140;24.760;2024-01-25T01:21:42;8.77;;;2.60;;
52718;SDS011;38616;42.140;24.760;2024-01-25T01:24:09;6.03;;;2.85;;
52718;SDS011;38616;42.140;24.760;2024-01-25T01:26:36;4.37;;;1.97;;
52718;SDS011;38616;42.140;24.760;2024-01-25T01:29:02;5.93;;;2.20;;
52718;SDS011;38616;42.140;24.760;2024-01-25T01:31:27;4.43;;;2.10;;
52718;SDS011;38616;42.140;24.760;2024-01-25T01:33:53;6.20;;;2.08;;
52718;SDS011;38616;42.140;24.760;2024-01-25T01:36:18;1.98;;;1.45;;
52718;SDS011;38616;42.140;24.760;2024-01-25T01:38:44;3.45;;;1.65;;
52718;SDS011;38616;42.140;24.760;2024-01-25T01:41:10;3.10;;;1.63;;
52718;SDS011;38616;42.140;24.760;2024-01-25T01:43:38;4.03;;;2.05;;
52718;SDS011;38616;42.140;24.760;2024-01-25T01:48:55;4.70;;;1.60;;
52718;SDS011;38616;42.140;24.760;2024-01-25T01:51:21;5.20;;;2.20;;
52718;SDS011;38616;42.140;24.760;2024-01-25T01:53:46;4.38;;;1.60;;
52718;SDS011;38616;42.140;24.760;2024-01-25T01:56:12;3.53;;;1.50;;
52718;SDS011;38616;42.140;24.760;2024-01-25T01:58:40;4.20;;;2.35;;
52718;SDS011;38616;42.140;24.760;2024-01-25T02:01:05;2.42;;;1.50;;
52718;SDS011;38616;42.140;24.760;2024-01-25T02:03:31;4.57;;;1.67;;
52718;SDS011;38616;42.140;24.760;2024-01-25T02:05:56;2.58;;;1.60;;
52718;SDS011;38616;42.140;24.760;2024-01-25T02:08:28;4.78;;;1.63;;
52718;SDS011;38616;42.140;24.760;2024-01-25T02:10:54;2.88;;;1.60;;
52718;SDS011;38616;42.140;24.760;2024-01-25T02:13:21;4.30;;;1.65;;
52718;SDS011;38616;42.140;24.760;2024-01-25T02:15:47;3.85;;;1.80;;
52718;SDS011;38616;42.140;24.760;2024-01-25T02:18:12;5.63;;;1.70;;
52718;SDS011;38616;42.140;24.760;2024-01-25T02:20:38;2.78;;;1.83;;
52718;SDS011;38616;42.140;24.760;2024-01-25T02:23:04;2.65;;;1.67;;
52718;SDS011;38616;42.140;24.760;2024-01-25T02:25:29;4.75;;;2.05;;
52718;SDS011;38616;42.140;24.760;2024-01-25T02:27:55;3.28;;;1.65;;
52718;SDS011;38616;42.140;24.760;2024-01-25T02:30:20;3.45;;;1.55;;
52718;SDS011;38616;42.140;24.760;2024-01-25T02:32:46;4.45;;;1.63;;
52718;SDS011;38616;42.140;24.760;2024-01-25T02:35:11;2.50;;;1.27;;
52718;SDS011;38616;42.140;24.760;2024-01-25T02:37:37;5.43;;;2.00;;
52718;SDS011;38616;42.140;24.760;2024-01-25T02:40:02;6.10;;;1.73;;
52718;SDS011;38616;42.140;24.760;2024-01-25T02:42:29;4.13;;;1.50;;
52718;SDS011;38616;42.140;24.760;2024-01-25T02:44:55;3.42;;;1.73;;
52718;SDS011;38616;42.140;24.760;2024-01-25T02:47:20;2.85;;;1.63;;
52718;SDS011;38616;42.140;24.760;2024-01-25T02:49:46;2.13;;;1.35;;
52718;SDS011;38616;42.140;24.760;2024-01-25T02:52:11;2.17;;;1.52;;
52718;SDS011;38616;42.140;24.760;2024-01-25T02:54:37;2.65;;;1.33;;
52718;SDS011;38616;42.140;24.760;2024-01-25T02:57:02;2.53;;;1.35;;
52718;SDS011;38616;42.140;24.760;2024-01-25T02:59:28;2.47;;;1.40;;
52718;SDS011;38616;42.140;24.760;2024-01-25T03:01:54;2.45;;;1.10;;
52718;SDS011;38616;42.140;24.760;2024-01-25T03:04:19;1.77;;;0.98;;
52718;SDS011;38616;42.140;24.760;2024-01-25T03:06:46;3.58;;;1.23;;
52718;SDS011;38616;42.140;24.760;2024-01-25T03:09:12;3.08;;;1.30;;
52718;SDS011;38616;42.140;24.760;2024-01-25T03:11:38;3.70;;;1.17;;
52718;SDS011;38616;42.140;24.760;2024-01-25T03:14:03;2.78;;;1.13;;
52718;SDS011;38616;42.140;24.760;2024-01-25T03:16:29;2.42;;;1.30;;
52718;SDS011;38616;42.140;24.760;2024-01-25T03:18:54;2.38;;;1.25;;
52718;SDS011;38616;42.140;24.760;2024-01-25T03:21:20;2.88;;;1.15;;
52718;SDS011;38616;42.140;24.760;2024-01-25T03:23:45;2.35;;;0.90;;
52718;SDS011;38616;42.140;24.760;2024-01-25T03:26:11;1.45;;;0.98;;
52718;SDS011;38616;42.140;24.760;2024-01-25T03:28:36;2.72;;;1.58;;
52718;SDS011;38616;42.140;24.760;2024-01-25T03:31:04;1.13;;;0.68;;
52718;SDS011;38616;42.140;24.760;2024-01-25T03:33:30;2.28;;;1.17;;
52718;SDS011;38616;42.140;24.760;2024-01-25T03:35:58;3.60;;;1.10;;
52718;SDS011;38616;42.140;24.760;2024-01-25T03:38:27;2.85;;;0.88;;
52718;SDS011;38616;42.140;24.760;2024-01-25T03:40:53;5.40;;;1.70;;
52718;SDS011;38616;42.140;24.760;2024-01-25T03:43:19;4.32;;;1.67;;
52718;SDS011;38616;42.140;24.760;2024-01-25T03:45:44;5.25;;;1.60;;
52718;SDS011;38616;42.140;24.760;2024-01-25T03:48:10;2.50;;;1.13;;
52718;SDS011;38616;42.140;24.760;2024-01-25T03:50:36;1.85;;;1.08;;
52718;SDS011;38616;42.140;24.760;2024-01-25T03:53:01;2.97;;;1.40;;
52718;SDS011;38616;42.140;24.760;2024-01-25T03:55:28;4.60;;;0.95;;
52718;SDS011;38616;42.140;24.760;2024-01-25T03:57:53;2.28;;;1.05;;
52718;SDS011;38616;42.140;24.760;2024-01-25T04:00:20;4.93;;;1.10;;
52718;SDS011;38616;42.140;24.760;2024-01-25T04:02:45;2.25;;;1.30;;
52718;SDS011;38616;42.140;24.760;2024-01-25T04:05:11;0.85;;;0.80;;
52718;SDS011;38616;42.140;24.760;2024-01-25T04:07:36;2.65;;;1.15;;
52718;SDS011;38616;42.140;24.760;2024-01-25T04:10:02;2.28;;;1.00;;
52718;SDS011;38616;42.140;24.760;2024-01-25T04:12:28;2.83;;;0.68;;
52718;SDS011;38616;42.140;24.760;2024-01-25T04:14:53;3.03;;;0.70;;
52718;SDS011;38616;42.140;24.760;2024-01-25T04:17:19;1.02;;;0.73;;
52718;SDS011;38616;42.140;24.760;2024-01-25T04:19:44;0.98;;;0.57;;
52718;SDS011;38616;42.140;24.760;2024-01-25T04:22:11;1.67;;;0.80;;
52718;SDS011;38616;42.140;24.760;2024-01-25T04:24:37;1.80;;;0.85;;
52718;SDS011;38616;42.140;24.760;2024-01-25T04:27:02;3.42;;;0.65;;
52718;SDS011;38616;42.140;24.760;2024-01-25T04:29:28;0.70;;;0.65;;
52718;SDS011;38616;42.140;24.760;2024-01-25T04:31:54;2.15;;;0.80;;
52718;SDS011;38616;42.140;24.760;2024-01-25T04:34:19;1.60;;;0.90;;
52718;SDS011;38616;42.140;24.760;2024-01-25T04:36:45;2.25;;;1.00;;
52718;SDS011;38616;42.140;24.760;2024-01-25T04:39:10;1.55;;;0.65;;
52718;SDS011;38616;42.140;24.760;2024-01-25T04:41:36;3.90;;;0.77;;
52718;SDS011;38616;42.140;24.760;2024-01-25T04:44:02;1.17;;;0.80;;
52718;SDS011;38616;42.140;24.760;2024-01-25T04:46:28;1.85;;;0.77;;
52718;SDS011;38616;42.140;24.760;2024-01-25T04:48:54;1.77;;;1.10;;
52718;SDS011;38616;42.140;24.760;2024-01-25T04:51:19;8.85;;;0.73;;
52718;SDS011;38616;42.140;24.760;2024-01-25T04:53:45;1.55;;;0.90;;
52718;SDS011;38616;42.140;24.760;2024-01-25T04:56:11;1.63;;;1.02;;
52718;SDS011;38616;42.140;24.760;2024-01-25T04:58:37;3.15;;;1.00;;
52718;SDS011;38616;42.140;24.760;2024-01-25T05:01:02;5.22;;;1.42;;
52718;SDS011;38616;42.140;24.760;2024-01-25T05:03:29;3.58;;;1.70;;
52718;SDS011;38616;42.140;24.760;2024-01-25T05:05:54;2.25;;;1.13;;
52718;SDS011;38616;42.140;24.760;2024-01-25T05:08:20;2.78;;;1.42;;
52718;SDS011;38616;42.140;24.760;2024-01-25T05:10:45;2.90;;;1.15;;
52718;SDS011;38616;42.140;24.760;2024-01-25T05:13:12;3.38;;;1.25;;
52718;SDS011;38616;42.140;24.760;2024-01-25T05:15:38;1.75;;;1.17;;
52718;SDS011;38616;42.140;24.760;2024-01-25T05:18:03;2.90;;;1.30;;
52718;SDS011;38616;42.140;24.760;2024-01-25T05:20:29;1.13;;;0.80;;
52718;SDS011;38616;42.140;24.760;2024-01-25T05:23:01;1.17;;;1.00;;
52718;SDS011;38616;42.140;24.760;2024-01-25T05:25:27;1.23;;;1.00;;
52718;SDS011;38616;42.140;24.760;2024-01-25T05:27:54;1.58;;;0.77;;
52718;SDS011;38616;42.140;24.760;2024-01-25T05:30:20;4.45;;;1.10;;
52718;SDS011;38616;42.140;24.760;2024-01-25T05:32:46;1.67;;;0.90;;
52718;SDS011;38616;42.140;24.760;2024-01-25T05:35:13;1.70;;;0.88;;
52718;SDS011;38616;42.140;24.760;2024-01-25T05:37:39;2.35;;;0.65;;
52718;SDS011;38616;42.140;24.760;2024-01-25T05:40:05;1.50;;;0.85;;
52718;SDS011;38616;42.140;24.760;2024-01-25T05:42:31;1.20;;;0.80;;
52718;SDS011;38616;42.140;24.760;2024-01-25T05:44:57;2.47;;;1.15;;
52718;SDS011;38616;42.140;24.760;2024-01-25T05:47:23;3.20;;;1.00;;
52718;SDS011;38616;42.140;24.760;2024-01-25T05:49:48;6.93;;;1.23;;
52718;SDS011;38616;42.140;24.760;2024-01-25T05:52:14;1.85;;;0.77;;
52718;SDS011;38616;42.140;24.760;2024-01-25T05:54:39;2.20;;;1.33;;
52718;SDS011;38616;42.140;24.760;2024-01-25T05:57:05;1.95;;;1.05;;
52718;SDS011;38616;42.140;24.760;2024-01-25T05:59:30;1.40;;;0.90;;
52718;SDS011;38616;42.140;24.760;2024-01-25T06:01:56;1.08;;;0.70;;
52718;SDS011;38616;42.140;24.760;2024-01-25T06:04:21;2.33;;;0.95;;
52718;SDS011;38616;42.140;24.760;2024-01-25T06:06:47;5.70;;;0.90;;
52718;SDS011;38616;42.140;24.760;2024-01-25T06:09:12;2.40;;;0.80;;
52718;SDS011;38616;42.140;24.760;2024-01-25T06:11:40;3.10;;;1.08;;
52718;SDS011;38616;42.140;24.760;2024-01-25T06:14:06;3.92;;;1.35;;
52718;SDS011;38616;42.140;24.760;2024-01-25T06:16:31;3.25;;;1.30;;
52718;SDS011;38616;42.140;24.760;2024-01-25T06:18:57;1.73;;;0.73;;
52718;SDS011;38616;42.140;24.760;2024-01-25T06:21:24;1.80;;;1.02;;
52718;SDS011;38616;42.140;24.760;2024-01-25T06:23:50;3.30;;;1.08;;
52718;SDS011;38616;42.140;24.760;2024-01-25T06:26:15;3.95;;;1.05;;
52718;SDS011;38616;42.140;24.760;2024-01-25T06:28:41;4.38;;;1.00;;
52718;SDS011;38616;42.140;24.760;2024-01-25T06:31:06;3.35;;;1.55;;
52718;SDS011;38616;42.140;24.760;2024-01-25T06:33:32;5.70;;;2.17;;
52718;SDS011;38616;42.140;24.760;2024-01-25T06:35:57;4.70;;;1.27;;
52718;SDS011;38616;42.140;24.760;2024-01-25T06:38:23;5.65;;;1.25;;
52718;SDS011;38616;42.140;24.760;2024-01-25T06:40:48;3.72;;;1.40;;
52718;SDS011;38616;42.140;24.760;2024-01-25T06:43:14;3.00;;;1.35;;
52718;SDS011;38616;42.140;24.760;2024-01-25T06:45:39;4.72;;;1.38;;
52718;SDS011;38616;42.140;24.760;2024-01-25T06:48:06;2.72;;;1.23;;
52718;SDS011;38616;42.140;24.760;2024-01-25T06:50:33;1.90;;;1.08;;
52718;SDS011;38616;42.140;24.760;2024-01-25T06:52:59;9.18;;;1.35;;
52718;SDS011;38616;42.140;24.760;2024-01-25T06:55:24;3.83;;;1.50;;
52718;SDS011;38616;42.140;24.760;2024-01-25T06:57:50;3.45;;;1.10;;
52718;SDS011;38616;42.140;24.760;2024-01-25T07:00:17;4.65;;;1.25;;
52718;SDS011;38616;42.140;24.760;2024-01-25T07:02:43;3.38;;;1.40;;
52718;SDS011;38616;42.140;24.760;2024-01-25T07:05:09;3.45;;;1.27;;
52718;SDS011;38616;42.140;24.760;2024-01-25T07:07:35;2.65;;;1.20;;
52718;SDS011;38616;42.140;24.760;2024-01-25T07:12:29;11.70;;;1.30;;
52718;SDS011;38616;42.140;24.760;2024-01-25T07:14:55;2.95;;;0.95;;
52718;SDS011;38616;42.140;24.760;2024-01-25T07:17:20;4.88;;;1.08;;
52718;SDS011;38616;42.140;24.760;2024-01-25T07:19:46;3.35;;;1.52;;
52718;SDS011;38616;42.140;24.760;2024-01-25T07:22:11;4.50;;;2.15;;
52718;SDS011;38616;42.140;24.760;2024-01-25T07:24:39;3.30;;;0.98;;
52718;SDS011;38616;42.140;24.760;2024-01-25T07:27:05;5.10;;;1.75;;
52718;SDS011;38616;42.140;24.760;2024-01-25T07:29:30;5.32;;;1.20;;
52718;SDS011;38616;42.140;24.760;2024-01-25T07:31:56;7.57;;;2.17;;
52718;SDS011;38616;42.140;24.760;2024-01-25T07:34:21;5.65;;;2.30;;
52718;SDS011;38616;42.140;24.760;2024-01-25T07:36:47;3.90;;;1.73;;
52718;SDS011;38616;42.140;24.760;2024-01-25T07:39:12;4.63;;;1.98;;
52718;SDS011;38616;42.140;24.760;2024-01-25T07:41:39;15.02;;;2.10;;
52718;SDS011;38616;42.140;24.760;2024-01-25T07:44:04;8.48;;;2.20;;
52718;SDS011;38616;42.140;24.760;2024-01-25T07:46:31;6.15;;;1.40;;
52718;SDS011;38616;42.140;24.760;2024-01-25T07:48:56;5.25;;;1.30;;
52718;SDS011;38616;42.140;24.760;2024-01-25T07:51:22;2.33;;;1.27;;
52718;SDS011;38616;42.140;24.760;2024-01-25T07:53:47;7.25;;;1.42;;
52718;SDS011;38616;42.140;24.760;2024-01-25T07:56:13;5.22;;;1.35;;
52718;SDS011;38616;42.140;24.760;2024-01-25T07:58:38;4.93;;;1.85;;
52718;SDS011;38616;42.140;24.760;2024-01-25T08:01:05;6.18;;;1.55;;
52718;SDS011;38616;42.140;24.760;2024-01-25T08:03:31;3.50;;;1.33;;
52718;SDS011;38616;42.140;24.760;2024-01-25T08:05:58;4.57;;;1.30;;
52718;SDS011;38616;42.140;24.760;2024-01-25T08:08:24;2.72;;;1.25;;
52718;SDS011;38616;42.140;24.760;2024-01-25T08:10:50;2.50;;;1.33;;
52718;SDS011;38616;42.140;24.760;2024-01-25T08:13:15;4.55;;;1.83;;
52718;SDS011;38616;42.140;24.760;2024-01-25T08:15:41;4.63;;;1.23;;
52718;SDS011;38616;42.140;24.760;2024-01-25T08:20:43;7.65;;;1.80;;
52718;SDS011;38616;42.140;24.760;2024-01-25T08:23:10;4.63;;;1.65;;
52718;SDS011;38616;42.140;24.760;2024-01-25T08:25:35;4.32;;;1.50;;
52718;SDS011;38616;42.140;24.760;2024-01-25T08:28:01;4.03;;;1.77;;
52718;SDS011;38616;42.140;24.760;2024-01-25T08:30:27;9.82;;;2.10;;
52718;SDS011;38616;42.140;24.760;2024-01-25T08:32:55;6.68;;;2.25;;
52718;SDS011;38616;42.140;24.760;2024-01-25T08:35:21;7.05;;;1.95;;
52718;SDS011;38616;42.140;24.760;2024-01-25T08:37:46;7.30;;;2.10;;
52718;SDS011;38616;42.140;24.760;2024-01-25T08:40:12;5.68;;;1.48;;
52718;SDS011;38616;42.140;24.760;2024-01-25T08:42:38;3.42;;;1.30;;
52718;SDS011;38616;42.140;24.760;2024-01-25T08:45:04;5.22;;;1.80;;
52718;SDS011;38616;42.140;24.760;2024-01-25T08:47:32;4.28;;;1.48;;
52718;SDS011;38616;42.140;24.760;2024-01-25T08:49:57;5.50;;;1.85;;
52718;SDS011;38616;42.140;24.760;2024-01-25T08:52:23;9.73;;;2.97;;
52718;SDS011;38616;42.140;24.760;2024-01-25T08:57:24;4.78;;;1.95;;
52718;SDS011;38616;42.140;24.760;2024-01-25T09:04:56;7.80;;;1.40;;
52718;SDS011;38616;42.140;24.760;2024-01-25T09:07:23;3.30;;;1.52;;
52718;SDS011;38616;42.140;24.760;2024-01-25T09:09:52;8.32;;;1.88;;
52718;SDS011;38616;42.140;24.760;2024-01-25T09:12:17;8.55;;;1.98;;
52718;SDS011;38616;42.140;24.760;2024-01-25T09:17:14;4.07;;;1.55;;
52718;SDS011;38616;42.140;24.760;2024-01-25T09:19:46;6.70;;;2.08;;
52718;SDS011;38616;42.140;24.760;2024-01-25T09:22:15;6.25;;;2.20;;
52718;SDS011;38616;42.140;24.760;2024-01-25T09:24:42;6.43;;;1.98;;
52718;SDS011;38616;42.140;24.760;2024-01-25T09:27:08;6.47;;;1.55;;
52718;SDS011;38616;42.140;24.760;2024-01-25T09:29:34;10.23;;;1.85;;
52718;SDS011;38616;42.140;24.760;2024-01-25T09:32:03;2.95;;;1.55;;
52718;SDS011;38616;42.140;24.760;2024-01-25T09:34:32;6.85;;;2.58;;
52718;SDS011;38616;42.140;24.760;2024-01-25T09:37:00;5.60;;;1.63;;
52718;SDS011;38616;42.140;24.760;2024-01-25T09:39:26;4.38;;;1.77;;
52718;SDS011;38616;42.140;24.760;2024-01-25T09:41:52;7.05;;;1.85;;
52718;SDS011;38616;42.140;24.760;2024-01-25T09:44:20;5.75;;;1.85;;
52718;SDS011;38616;42.140;24.760;2024-01-25T09:46:46;6.95;;;1.80;;
52718;SDS011;38616;42.140;24.760;2024-01-25T09:49:11;7.07;;;2.03;;
52718;SDS011;38616;42.140;24.760;2024-01-25T09:51:38;6.22;;;2.03;;
52718;SDS011;38616;42.140;24.760;2024-01-25T09:54:07;7.60;;;1.70;;
52718;SDS011;38616;42.140;24.760;2024-01-25T09:56:33;9.32;;;1.60;;
52718;SDS011;38616;42.140;24.760;2024-01-25T09:58:59;8.65;;;2.10;;
52718;SDS011;38616;42.140;24.760;2024-01-25T10:01:25;3.20;;;1.10;;
52718;SDS011;38616;42.140;24.760;2024-01-25T10:03:51;5.50;;;1.77;;
52718;SDS011;38616;42.140;24.760;2024-01-25T10:06:17;5.70;;;1.60;;
52718;SDS011;38616;42.140;24.760;2024-01-25T10:08:45;7.35;;;1.65;;
52718;SDS011;38616;42.140;24.760;2024-01-25T10:11:11;8.00;;;1.80;;
52718;SDS011;38616;42.140;24.760;2024-01-25T10:13:43;6.57;;;1.92;;
52718;SDS011;38616;42.140;24.760;2024-01-25T10:18:38;5.85;;;1.70;;
52718;SDS011;38616;42.140;24.760;2024-01-25T10:21:06;6.95;;;2.08;;
52718;SDS011;38616;42.140;24.760;2024-01-25T10:23:32;6.20;;;1.70;;
52718;SDS011;38616;42.140;24.760;2024-01-25T10:25:57;6.88;;;2.25;;
52718;SDS011;38616;42.140;24.760;2024-01-25T10:28:23;2.42;;;1.50;;
52718;SDS011;38616;42.140;24.760;2024-01-25T10:30:55;6.25;;;2.13;;
52718;SDS011;38616;42.140;24.760;2024-01-25T10:33:22;4.88;;;2.40;;
52718;SDS011;38616;42.140;24.760;2024-01-25T10:35:49;5.95;;;2.30;;
52718;SDS011;38616;42.140;24.760;2024-01-25T10:38:20;11.90;;;2.97;;
52718;SDS011;38616;42.140;24.760;2024-01-25T10:40:46;7.32;;;1.80;;
52718;SDS011;38616;42.140;24.760;2024-01-25T10:43:12;3.80;;;1.83;;
52718;SDS011;38616;42.140;24.760;2024-01-25T10:45:37;5.85;;;1.60;;
52718;SDS011;38616;42.140;24.760;2024-01-25T10:48:03;10.15;;;1.67;;
52718;SDS011;38616;42.140;24.760;2024-01-25T10:50:29;4.45;;;1.90;;
52718;SDS011;38616;42.140;24.760;2024-01-25T10:52:55;7.03;;;1.42;;
52718;SDS011;38616;42.140;24.760;2024-01-25T10:55:22;4.30;;;1.43;;
52718;SDS011;38616;42.140;24.760;2024-01-25T10:57:48;6.38;;;1.80;;
52718;SDS011;38616;42.140;24.760;2024-01-25T11:00:17;6.05;;;2.45;;
52718;SDS011;38616;42.140;24.760;2024-01-25T11:02:44;6.80;;;2.00;;
52718;SDS011;38616;42.140;24.760;2024-01-25T11:05:11;9.68;;;2.25;;
52718;SDS011;38616;42.140;24.760;2024-01-25T11:10:19;4.68;;;1.70;;
52718;SDS011;38616;42.140;24.760;2024-01-25T11:13:13;7.82;;;2.22;;
52718;SDS011;38616;42.140;24.760;2024-01-25T11:15:39;6.15;;;1.75;;
52718;SDS011;38616;42.140;24.760;2024-01-25T11:18:08;5.93;;;1.75;;
52718;SDS011;38616;42.140;24.760;2024-01-25T11:20:35;10.38;;;2.00;;
52718;SDS011;38616;42.140;24.760;2024-01-25T11:25:32;7.80;;;3.67;;
52718;SDS011;38616;42.140;24.760;2024-01-25T11:27:59;6.38;;;1.73;;
52718;SDS011;38616;42.140;24.760;2024-01-25T11:30:26;10.60;;;2.58;;
52718;SDS011;38616;42.140;24.760;2024-01-25T11:32:52;7.78;;;2.05;;
52718;SDS011;38616;42.140;24.760;2024-01-25T11:35:17;8.23;;;2.03;;
52718;SDS011;38616;42.140;24.760;2024-01-25T11:37:46;8.63;;;1.88;;
52718;SDS011;38616;42.140;24.760;2024-01-25T11:40:13;7.97;;;2.00;;
52718;SDS011;38616;42.140;24.760;2024-01-25T11:42:40;5.68;;;2.17;;
52718;SDS011;38616;42.140;24.760;2024-01-25T11:45:08;7.20;;;1.95;;
52718;SDS011;38616;42.140;24.760;2024-01-25T11:47:35;5.25;;;1.65;;
52718;SDS011;38616;42.140;24.760;2024-01-25T11:50:01;11.43;;;1.98;;
52718;SDS011;38616;42.140;24.760;2024-01-25T11:52:27;5.65;;;1.67;;
52718;SDS011;38616;42.140;24.760;2024-01-25T11:54:53;5.50;;;2.80;;
52718;SDS011;38616;42.140;24.760;2024-01-25T11:57:19;9.50;;;2.60;;
52718;SDS011;38616;42.140;24.760;2024-01-25T11:59:45;5.03;;;1.75;;
52718;SDS011;38616;42.140;24.760;2024-01-25T12:02:14;6.88;;;2.03;;
52718;SDS011;38616;42.140;24.760;2024-01-25T12:04:40;4.15;;;1.92;;
52718;SDS011;38616;42.140;24.760;2024-01-25T12:07:05;6.60;;;2.25;;
52718;SDS011;38616;42.140;24.760;2024-01-25T12:09:31;5.85;;;2.08;;
52718;SDS011;38616;42.140;24.760;2024-01-25T12:11:56;20.98;;;2.47;;
52718;SDS011;38616;42.140;24.760;2024-01-25T12:14:23;5.28;;;1.65;;
52718;SDS011;38616;42.140;24.760;2024-01-25T12:16:49;5.68;;;1.67;;
52718;SDS011;38616;42.140;24.760;2024-01-25T12:19:15;6.85;;;2.10;;
52718;SDS011;38616;42.140;24.760;2024-01-25T12:21:44;8.05;;;1.83;;
52718;SDS011;38616;42.140;24.760;2024-01-25T12:24:10;14.15;;;2.55;;
52718;SDS011;38616;42.140;24.760;2024-01-25T12:26:35;5.90;;;1.92;;
52718;SDS011;38616;42.140;24.760;2024-01-25T12:29:02;8.65;;;1.77;;
52718;SDS011;38616;42.140;24.760;2024-01-25T12:31:28;7.28;;;1.75;;
52718;SDS011;38616;42.140;24.760;2024-01-25T12:33:54;8.02;;;3.22;;
52718;SDS011;38616;42.140;24.760;2024-01-25T12:36:19;7.18;;;1.70;;
52718;SDS011;38616;42.140;24.760;2024-01-25T12:38:45;5.25;;;2.05;;
52718;SDS011;38616;42.140;24.760;2024-01-25T12:43:44;7.07;;;2.00;;
52718;SDS011;38616;42.140;24.760;2024-01-25T12:46:10;5.05;;;2.38;;
52718;SDS011;38616;42.140;24.760;2024-01-25T12:48:35;5.43;;;1.60;;
52718;SDS011;38616;42.140;24.760;2024-01-25T12:51:01;9.10;;;2.50;;
52718;SDS011;38616;42.140;24.760;2024-01-25T12:53:27;9.95;;;2.97;;
52718;SDS011;38616;42.140;24.760;2024-01-25T12:55:52;9.07;;;2.03;;
52718;SDS011;38616;42.140;24.760;2024-01-25T12:58:20;4.83;;;1.70;;
52718;SDS011;38616;42.140;24.760;2024-01-25T13:00:47;4.97;;;1.60;;
52718;SDS011;38616;42.140;24.760;2024-01-25T13:03:13;6.22;;;1.67;;
52718;SDS011;38616;42.140;24.760;2024-01-25T13:05:38;5.45;;;2.03;;
52718;SDS011;38616;42.140;24.760;2024-01-25T13:08:04;7.15;;;1.88;;
52718;SDS011;38616;42.140;24.760;2024-01-25T13:10:31;5.90;;;1.75;;
52718;SDS011;38616;42.140;24.760;2024-01-25T13:12:57;6.13;;;1.65;;
52718;SDS011;38616;42.140;24.760;2024-01-25T13:15:25;5.93;;;1.55;;
52718;SDS011;38616;42.140;24.760;2024-01-25T13:17:51;6.45;;;2.28;;
52718;SDS011;38616;42.140;24.760;2024-01-25T13:20:18;5.78;;;1.85;;
52718;SDS011;38616;42.140;24.760;2024-01-25T13:22:45;5.75;;;1.92;;
52718;SDS011;38616;42.140;24.760;2024-01-25T13:25:10;5.80;;;1.63;;
52718;SDS011;38616;42.140;24.760;2024-01-25T13:27:37;3.10;;;1.60;;
52718;SDS011;38616;42.140;24.760;2024-01-25T13:30:03;5.38;;;1.75;;
52718;SDS011;38616;42.140;24.760;2024-01-25T13:32:30;10.38;;;1.73;;
52718;SDS011;38616;42.140;24.760;2024-01-25T13:34:55;6.47;;;1.80;;
52718;SDS011;38616;42.140;24.760;2024-01-25T13:39:53;6.15;;;1.88;;
52718;SDS011;38616;42.140;24.760;2024-01-25T13:42:19;9.18;;;2.10;;
52718;SDS011;38616;42.140;24.760;2024-01-25T13:44:44;10.77;;;2.45;;
52718;SDS011;38616;42.140;24.760;2024-01-25T13:47:17;2.95;;;1.58;;
52718;SDS011;38616;42.140;24.760;2024-01-25T13:49:42;8.30;;;1.83;;
52718;SDS011;38616;42.140;24.760;2024-01-25T13:52:14;5.93;;;2.10;;
52718;SDS011;38616;42.140;24.760;2024-01-25T13:54:47;5.22;;;2.30;;
52718;SDS011;38616;42.140;24.760;2024-01-25T13:57:16;7.53;;;2.33;;
52718;SDS011;38616;42.140;24.760;2024-01-25T13:59:42;8.18;;;2.30;;
52718;SDS011;38616;42.140;24.760;2024-01-25T14:02:07;6.60;;;1.63;;
52718;SDS011;38616;42.140;24.760;2024-01-25T14:04:33;7.28;;;1.70;;
52718;SDS011;38616;42.140;24.760;2024-01-25T14:06:59;7.55;;;2.28;;
52718;SDS011;38616;42.140;24.760;2024-01-25T14:09:27;6.93;;;1.88;;
52718;SDS011;38616;42.140;24.760;2024-01-25T14:11:54;7.90;;;2.58;;
52718;SDS011;38616;42.140;24.760;2024-01-25T14:14:20;10.15;;;1.80;;
52718;SDS011;38616;42.140;24.760;2024-01-25T14:16:46;3.72;;;1.73;;
52718;SDS011;38616;42.140;24.760;2024-01-25T14:19:11;6.10;;;1.88;;
52718;SDS011;38616;42.140;24.760;2024-01-25T14:21:37;8.18;;;1.65;;
52718;SDS011;38616;42.140;24.760;2024-01-25T14:24:02;8.35;;;1.77;;
52718;SDS011;38616;42.140;24.760;2024-01-25T14:26:30;8.15;;;1.88;;
52718;SDS011;38616;42.140;24.760;2024-01-25T14:28:58;3.15;;;1.40;;
52718;SDS011;38616;42.140;24.760;2024-01-25T14:31:24;4.63;;;1.70;;
52718;SDS011;38616;42.140;24.760;2024-01-25T14:33:49;7.55;;;2.45;;
52718;SDS011;38616;42.140;24.760;2024-01-25T14:36:15;4.93;;;1.77;;
52718;SDS011;38616;42.140;24.760;2024-01-25T14:38:40;7.32;;;1.85;;
52718;SDS011;38616;42.140;24.760;2024-01-25T14:41:09;8.20;;;2.28;;
52718;SDS011;38616;42.140;24.760;2024-01-25T14:43:36;5.68;;;1.95;;
52718;SDS011;38616;42.140;24.760;2024-01-25T14:46:02;4.88;;;1.85;;
52718;SDS011;38616;42.140;24.760;2024-01-25T14:48:28;10.38;;;2.33;;
52718;SDS011;38616;42.140;24.760;2024-01-25T14:50:53;6.93;;;2.00;;
52718;SDS011;38616;42.140;24.760;2024-01-25T14:53:19;8.63;;;1.92;;
52718;SDS011;38616;42.140;24.760;2024-01-25T14:55:44;10.02;;;3.00;;
52718;SDS011;38616;42.140;24.760;2024-01-25T14:58:10;8.48;;;2.83;;